createdAt,value
2022-10-11T00:00:25.644Z,96919.13
2022-10-11T00:02:52.718Z,96914.94
2022-10-11T00:05:19.671Z,96913.19
2022-10-11T00:07:46.721Z,96921.81
2022-10-11T00:10:13.716Z,96934.66
2022-10-11T00:12:41.331Z,96933.63
2022-10-11T00:15:09.952Z,96941.03
2022-10-11T00:17:37.002Z,96939.56
2022-10-11T00:20:04.841Z,96938.53
2022-10-11T00:22:32.192Z,96945.19
2022-10-11T00:24:59.360Z,96952.59
2022-10-11T00:27:26.610Z,96941.47
2022-10-11T00:29:53.831Z,96941.19
2022-10-11T00:32:20.926Z,96953.03
2022-10-11T00:34:48.230Z,96959.22
2022-10-11T00:37:15.429Z,96944.13
2022-10-11T00:39:42.650Z,96953.97
2022-10-11T00:42:14.649Z,96956.69
2022-10-11T00:44:47.860Z,96956.44
2022-10-11T00:47:18.948Z,96956.81
2022-10-11T00:49:55.996Z,96959.22
2022-10-11T00:52:37.779Z,96964.59
2022-10-11T00:55:17.973Z,96966.28
2022-10-11T00:57:50.060Z,96969.00
2022-10-11T01:00:17.280Z,96972.22
2022-10-11T01:02:44.595Z,96967.25
2022-10-11T01:05:30.492Z,96971.94
2022-10-11T01:08:00.406Z,96969.22
2022-10-11T01:10:28.421Z,96971.19
2022-10-11T01:13:15.088Z,96969.22
2022-10-11T01:15:42.543Z,96966.97
2022-10-11T01:18:26.450Z,96963.50
2022-10-11T01:20:59.289Z,96962.75
2022-10-11T01:23:51.171Z,96966.44
2022-10-11T01:26:37.112Z,96976.25
2022-10-11T01:29:04.195Z,96964.66
2022-10-11T01:31:54.130Z,96968.31
2022-10-11T01:34:47.779Z,96976.69
2022-10-11T01:37:41.504Z,96969.81
2022-10-11T01:40:23.250Z,96967.25
2022-10-11T01:42:52.586Z,96971.84
2022-10-11T01:45:20.897Z,96974.78
2022-10-11T01:47:48.327Z,96972.75
2022-10-11T01:50:52.111Z,96976.38
2022-10-11T01:53:56.730Z,96978.09
2022-10-11T01:57:02.061Z,96967.41
2022-10-11T01:59:58.461Z,96961.16
2022-10-11T02:02:45.797Z,96971.47
2022-10-11T02:05:18.799Z,96973.63
2022-10-11T02:07:45.753Z,96970.84
2022-10-11T02:10:20.378Z,96978.69
2022-10-11T02:12:58.418Z,96970.00
2022-10-11T02:15:29.225Z,96969.75
2022-10-11T02:17:59.407Z,96980.78
2022-10-11T02:20:28.636Z,96974.81
2022-10-11T02:23:02.432Z,96981.66
2022-10-11T02:25:32.672Z,96976.41
2022-10-11T02:28:04.180Z,96974.38
2022-10-11T02:30:32.385Z,96973.31
2022-10-11T02:33:03.329Z,96973.25
2022-10-11T02:35:35.660Z,96973.41
2022-10-11T02:38:27.901Z,96972.56
2022-10-11T02:41:06.471Z,96979.41
2022-10-11T02:43:40.072Z,96979.56
2022-10-11T02:46:09.300Z,96983.69
2022-10-11T02:48:37.911Z,96976.78
2022-10-11T02:51:05.357Z,96985.56
2022-10-11T02:53:34.045Z,96978.81
2022-10-11T02:56:01.184Z,96979.00
2022-10-11T02:58:29.299Z,96983.13
2022-10-11T03:00:56.454Z,96986.50
2022-10-11T03:03:23.411Z,96983.69
2022-10-11T03:05:50.545Z,96986.28
2022-10-11T03:08:18.282Z,96984.22
2022-10-11T03:10:45.724Z,96980.66
2022-10-11T03:13:17.852Z,96987.00
2022-10-11T03:16:07.221Z,96986.41
2022-10-11T03:18:34.812Z,96983.63
2022-10-11T03:21:04.853Z,96981.56
2022-10-11T03:23:31.936Z,96984.63
2022-10-11T03:25:58.839Z,96989.16
2022-10-11T03:28:27.013Z,96981.50
2022-10-11T03:30:53.990Z,96993.72
2022-10-11T03:33:23.560Z,96987.44
2022-10-11T03:35:50.841Z,97000.72
2022-10-11T03:38:22.254Z,96996.69
2022-10-11T03:40:49.815Z,97001.69
2022-10-11T03:43:17.819Z,96996.91
2022-10-11T03:45:44.962Z,96997.06
2022-10-11T03:48:13.734Z,96990.78
2022-10-11T03:50:40.841Z,96994.69
2022-10-11T03:53:07.911Z,97000.28
2022-10-11T03:55:35.009Z,97000.00
2022-10-11T03:58:03.059Z,97012.03
2022-10-11T04:00:30.210Z,97010.25
2022-10-11T04:02:57.508Z,97013.13
2022-10-11T04:05:24.629Z,97006.34
2022-10-11T04:07:52.319Z,97007.59
2022-10-11T04:10:19.400Z,97013.91
2022-10-11T04:12:47.461Z,97010.91
2022-10-11T04:15:14.740Z,97011.81
2022-10-11T04:17:42.076Z,97014.25
2022-10-11T04:20:10.620Z,97012.16
2022-10-11T04:22:38.609Z,97007.66
2022-10-11T04:25:07.791Z,97017.44
2022-10-11T04:27:35.349Z,97017.31
2022-10-11T04:30:02.418Z,97021.63
2022-10-11T04:32:29.576Z,97019.09
2022-10-11T04:34:57.179Z,97016.09
2022-10-11T04:37:24.407Z,97009.78
2022-10-11T04:39:51.566Z,97014.31
2022-10-11T04:42:18.691Z,97015.97
2022-10-11T04:44:45.873Z,97020.03
2022-10-11T04:47:13.620Z,97027.84
2022-10-11T04:49:40.826Z,97029.81
2022-10-11T04:52:08.126Z,97035.69
2022-10-11T04:54:35.494Z,97035.81
2022-10-11T04:57:02.784Z,97035.25
2022-10-11T04:59:30.029Z,97043.97
2022-10-11T05:01:57.375Z,97052.22
2022-10-11T05:04:24.665Z,97043.53
2022-10-11T05:06:51.850Z,97047.88
2022-10-11T05:09:19.008Z,97043.06
2022-10-11T05:11:46.190Z,97047.88
2022-10-11T05:14:13.312Z,97044.28
2022-10-11T05:16:40.330Z,97040.97
2022-10-11T05:19:07.503Z,97045.75
2022-10-11T05:21:34.521Z,97044.41
2022-10-11T05:24:01.670Z,97046.53
2022-10-11T05:26:28.926Z,97054.31
2022-10-11T05:28:56.529Z,97054.03
2022-10-11T05:31:23.743Z,97059.88
2022-10-11T05:33:51.013Z,97058.53
2022-10-11T05:36:18.299Z,97064.06
2022-10-11T05:38:45.507Z,97071.56
2022-10-11T05:41:15.903Z,97081.31
2022-10-11T05:43:44.785Z,97083.72
2022-10-11T05:46:12.353Z,97076.50
2022-10-11T05:48:39.582Z,97084.28
2022-10-11T05:51:10.057Z,97085.19
2022-10-11T05:53:38.365Z,97085.63
2022-10-11T05:56:06.376Z,97094.19
2022-10-11T05:58:33.806Z,97099.28
2022-10-11T06:01:00.853Z,97102.44
2022-10-11T06:03:28.348Z,97099.13
2022-10-11T06:05:57.222Z,97103.03
2022-10-11T06:08:24.716Z,97105.72
2022-10-11T06:10:51.696Z,97108.41
2022-10-11T06:13:18.836Z,97114.72
2022-10-11T06:15:45.837Z,97115.91
2022-10-11T06:18:16.165Z,97112.91
2022-10-11T06:20:43.460Z,97118.31
2022-10-11T06:23:10.696Z,97124.59
2022-10-11T06:25:37.930Z,97128.06
2022-10-11T06:28:05.199Z,97125.78
2022-10-11T06:30:32.455Z,97127.75
2022-10-11T06:33:04.484Z,97142.00
2022-10-11T06:35:35.099Z,97142.75
2022-10-11T06:38:02.299Z,97131.94
2022-10-11T06:40:29.788Z,97142.00
2022-10-11T06:42:56.985Z,97149.66
2022-10-11T06:45:24.159Z,97144.38
2022-10-11T06:47:51.329Z,97144.69
2022-10-11T06:50:29.958Z,97151.59
2022-10-11T06:53:08.186Z,97154.59
2022-10-11T06:55:35.586Z,97160.47
2022-10-11T06:58:02.879Z,97158.81
2022-10-11T07:00:30.087Z,97161.50
2022-10-11T07:02:57.518Z,97172.94
2022-10-11T07:05:24.714Z,97165.47
2022-10-11T07:07:52.137Z,97173.09
2022-10-11T07:10:19.314Z,97178.69
2022-10-11T07:12:48.663Z,97182.88
2022-10-11T07:15:15.965Z,97182.78
2022-10-11T07:17:43.294Z,97181.44
2022-10-11T07:20:12.598Z,97189.06
2022-10-11T07:22:39.806Z,97198.13
2022-10-11T07:25:08.914Z,97199.63
2022-10-11T07:27:36.137Z,97206.25
2022-10-11T07:30:03.866Z,97198.78
2022-10-11T07:32:31.581Z,97194.72
2022-10-11T07:34:58.715Z,97196.41
2022-10-11T07:37:26.019Z,97196.69
2022-10-11T07:39:53.122Z,97190.41
2022-10-11T07:42:21.114Z,97194.16
2022-10-11T07:44:48.751Z,97187.13
2022-10-11T07:47:16.616Z,97192.97
2022-10-11T07:49:43.741Z,97183.66
2022-10-11T07:52:11.448Z,97176.59
2022-10-11T07:54:40.532Z,97183.50
2022-10-11T07:57:07.832Z,97179.47
2022-10-11T07:59:36.197Z,97179.94
2022-10-11T08:02:03.485Z,97184.91
2022-10-11T08:04:30.949Z,97194.06
2022-10-11T08:06:58.159Z,97195.88
2022-10-11T08:09:25.302Z,97198.44
2022-10-11T08:11:52.805Z,97203.72
2022-10-11T08:14:19.983Z,97198.44
2022-10-11T08:16:47.226Z,97210.03
2022-10-11T08:19:14.654Z,97208.09
2022-10-11T08:21:41.977Z,97212.44
2022-10-11T08:24:09.350Z,97204.03
2022-10-11T08:26:36.568Z,97215.91
2022-10-11T08:29:05.396Z,97212.59
2022-10-11T08:31:34.939Z,97210.63
2022-10-11T08:34:04.563Z,97215.13
2022-10-11T08:36:32.483Z,97212.28
2022-10-11T08:38:59.687Z,97211.50
2022-10-11T08:41:39.530Z,97214.53
2022-10-11T08:44:34.174Z,97210.56
2022-10-11T08:47:21.940Z,97209.16
2022-10-11T08:49:49.490Z,97210.97
2022-10-11T08:52:19.281Z,97206.31
2022-10-11T08:55:04.772Z,97209.63
2022-10-11T08:57:35.561Z,97204.34
2022-10-11T09:00:13.972Z,97207.00
2022-10-11T09:03:10.610Z,97207.28
2022-10-11T09:05:58.309Z,97200.97
2022-10-11T09:08:43.370Z,97199.75
2022-10-11T09:11:21.301Z,97203.16
2022-10-11T09:14:07.231Z,97194.69
2022-10-11T09:16:46.556Z,97195.56
2022-10-11T09:19:27.481Z,97192.97
2022-10-11T09:21:57.168Z,97186.91
2022-10-11T09:25:01.072Z,97192.47
2022-10-11T09:28:02.252Z,97196.34
2022-10-11T09:30:29.976Z,97197.72
2022-10-11T09:33:18.747Z,97191.53
2022-10-11T09:35:50.037Z,97195.31
2022-10-11T09:38:38.525Z,97196.88
2022-10-11T09:41:15.476Z,97195.81
2022-10-11T09:43:48.692Z,97194.16
2022-10-11T09:46:44.849Z,97198.19
2022-10-11T09:49:15.302Z,97193.31
2022-10-11T09:51:49.773Z,97187.44
2022-10-11T09:54:27.607Z,97194.06
2022-10-11T09:56:55.154Z,97194.75
2022-10-11T09:59:37.975Z,97194.19
2022-10-11T10:02:14.684Z,97198.13
2022-10-11T10:04:54.182Z,97196.44
2022-10-11T10:07:21.608Z,97186.03
2022-10-11T10:09:49.223Z,97190.81
2022-10-11T10:12:24.034Z,97184.09
2022-10-11T10:15:07.070Z,97191.69
2022-10-11T10:17:36.171Z,97197.97
2022-10-11T10:20:05.844Z,97195.53
2022-10-11T10:22:35.897Z,97196.38
2022-10-11T10:25:08.263Z,97196.47
2022-10-11T10:27:36.189Z,97185.31
2022-10-11T10:30:14.020Z,97187.22
2022-10-11T10:32:53.902Z,97188.13
2022-10-11T10:35:54.080Z,97182.03
2022-10-11T10:38:32.423Z,97185.59
2022-10-11T10:41:03.652Z,97182.59
2022-10-11T10:43:36.984Z,97185.91
2022-10-11T10:46:19.609Z,97183.53
2022-10-11T10:52:36.825Z,97187.19
2022-10-11T10:55:13.078Z,97183.25
2022-10-11T10:58:09.904Z,97186.75
2022-10-11T11:00:43.795Z,97183.91
2022-10-11T11:03:34.361Z,97191.19
2022-10-11T11:06:10.903Z,97184.16
2022-10-11T11:09:02.415Z,97181.34
2022-10-11T11:11:52.821Z,97178.50
2022-10-11T11:14:50.479Z,97183.00
2022-10-11T11:17:39.352Z,97183.97
2022-10-11T11:20:32.045Z,97182.28
2022-10-11T11:23:17.279Z,97172.72
2022-10-11T11:25:52.704Z,97176.13
2022-10-11T11:28:32.466Z,97172.66
2022-10-11T11:31:24.628Z,97171.34
2022-10-11T11:34:00.243Z,97172.72
2022-10-11T11:36:48.938Z,97178.38
2022-10-11T11:39:48.526Z,97174.28
2022-10-11T11:42:23.474Z,97172.53
2022-10-11T11:44:52.225Z,97171.78
2022-10-11T11:47:28.781Z,97157.50
2022-10-11T11:50:01.592Z,97158.31
2022-10-11T11:52:36.249Z,97158.31
2022-10-11T11:55:19.942Z,97148.63
2022-10-11T11:58:15.986Z,97141.69
2022-10-11T12:00:58.628Z,97144.94
2022-10-11T12:03:32.201Z,97145.16
2022-10-11T12:06:15.057Z,97141.53
2022-10-11T12:08:46.100Z,97137.38
2022-10-11T12:11:35.290Z,97135.47
2022-10-11T12:14:23.501Z,97139.97
2022-10-11T12:17:30.105Z,97135.75
2022-10-11T12:20:10.577Z,97137.53
2022-10-11T12:22:49.414Z,97138.63
2022-10-11T12:25:18.533Z,97144.13
2022-10-11T12:27:51.293Z,97143.91
2022-10-11T12:30:55.738Z,97136.53
2022-10-11T12:33:32.917Z,97124.66
2022-10-11T12:36:22.172Z,97122.00
2022-10-11T12:39:21.456Z,97123.44
2022-10-11T12:41:51.564Z,97123.13
2022-10-11T12:44:19.451Z,97121.69
2022-10-11T12:46:55.371Z,97115.47
2022-10-11T12:49:35.600Z,97106.38
2022-10-11T12:52:24.419Z,97101.97
2022-10-11T12:55:03.601Z,97110.25
2022-10-11T12:57:46.381Z,97102.00
2022-10-11T13:00:22.147Z,97109.50
2022-10-11T13:02:50.044Z,97108.78
2022-10-11T13:05:44.948Z,97105.81
2022-10-11T13:08:22.747Z,97102.53
2022-10-11T13:10:49.905Z,97101.03
2022-10-11T13:13:37.941Z,97096.88
2022-10-11T13:16:13.040Z,97102.50
2022-10-11T13:18:49.625Z,97095.28
2022-10-11T13:21:33.973Z,97095.75
2022-10-11T13:24:04.023Z,97097.03
2022-10-11T13:26:34.250Z,97086.06
2022-10-11T13:29:02.128Z,97087.31
2022-10-11T13:31:29.208Z,97088.50
2022-10-11T13:33:59.398Z,97092.50
2022-10-11T13:36:27.811Z,97093.75
2022-10-11T13:39:00.831Z,97083.56
2022-10-11T13:41:31.012Z,97083.56
2022-10-11T13:44:00.591Z,97078.84
2022-10-11T13:46:30.012Z,97082.59
2022-10-11T13:49:06.983Z,97079.84
2022-10-11T13:51:37.990Z,97076.84
2022-10-11T13:54:12.912Z,97079.09
2022-10-11T13:56:48.622Z,97082.81
2022-10-11T13:59:24.885Z,97077.13
2022-10-11T14:02:00.530Z,97076.16
2022-10-11T14:04:29.937Z,97071.41
2022-10-11T14:07:00.900Z,97072.16
2022-10-11T14:09:30.408Z,97074.63
2022-10-11T14:12:38.639Z,97069.44
2022-10-11T14:15:23.968Z,97071.38
2022-10-11T14:17:54.054Z,97074.09
2022-10-11T14:20:40.391Z,97064.91
2022-10-11T14:23:07.413Z,97061.84
2022-10-11T14:25:34.937Z,97075.84
2022-10-11T14:28:02.834Z,97066.00
2022-10-11T14:30:31.767Z,97069.03
2022-10-11T14:33:02.828Z,97065.28
2022-10-11T14:35:34.795Z,97061.00
2022-10-11T14:38:01.846Z,97062.69
2022-10-11T14:40:31.208Z,97066.13
2022-10-11T14:42:58.977Z,97068.53
2022-10-11T14:45:26.115Z,97073.69
2022-10-11T14:47:53.312Z,97070.66
2022-10-11T14:50:28.831Z,97070.59
2022-10-11T14:52:56.599Z,97071.06
2022-10-11T14:55:24.667Z,97072.97
2022-10-11T14:57:52.103Z,97068.69
2022-10-11T15:00:29.880Z,97069.16
2022-10-11T15:02:57.733Z,97067.31
2022-10-11T15:05:31.180Z,97064.06
2022-10-11T15:08:01.297Z,97075.88
2022-10-11T15:10:33.828Z,97076.06
2022-10-11T15:13:00.970Z,97068.59
2022-10-11T15:15:30.868Z,97075.69
2022-10-11T15:17:59.641Z,97067.00
2022-10-11T15:20:32.673Z,97067.69
2022-10-11T15:23:03.639Z,97065.09
2022-10-11T15:25:31.685Z,97064.25
2022-10-11T15:28:06.158Z,97059.97
2022-10-11T15:30:41.088Z,97060.84
2022-10-11T15:33:09.375Z,97059.84
2022-10-11T15:35:36.575Z,97051.59
2022-10-11T15:38:03.904Z,97055.47
2022-10-11T15:40:33.880Z,97053.25
2022-10-11T15:43:02.217Z,97043.97
2022-10-11T15:45:29.997Z,97050.47
2022-10-11T15:47:57.587Z,97041.94
2022-10-11T15:50:34.718Z,97044.81
2022-10-11T15:53:13.350Z,97046.63
2022-10-11T15:55:43.589Z,97046.28
2022-10-11T15:58:32.422Z,97042.00
2022-10-11T16:01:02.212Z,97040.72
2022-10-11T16:03:30.586Z,97037.41
2022-10-11T16:06:04.609Z,97035.19
2022-10-11T16:08:34.427Z,97046.53
2022-10-11T16:11:02.088Z,97047.00
2022-10-11T16:13:29.765Z,97052.34
2022-10-11T16:15:57.042Z,97054.81
2022-10-11T16:18:24.382Z,97045.44
2022-10-11T16:20:52.674Z,97054.25
2022-10-11T16:23:22.200Z,97050.22
2022-10-11T16:26:01.163Z,97047.69
2022-10-11T16:28:29.494Z,97049.13
2022-10-11T16:30:56.942Z,97045.09
2022-10-11T16:33:24.475Z,97046.50
2022-10-11T16:35:52.711Z,97049.91
2022-10-11T16:38:19.959Z,97048.59
2022-10-11T16:40:47.575Z,97053.94
2022-10-11T16:43:15.182Z,97051.38
2022-10-11T16:45:42.708Z,97052.78
2022-10-11T16:48:12.253Z,97053.91
2022-10-11T16:50:39.918Z,97052.16
2022-10-11T16:53:07.241Z,97054.00
2022-10-11T16:55:35.640Z,97055.41
2022-10-11T16:58:03.271Z,97049.88
2022-10-11T17:00:30.655Z,97055.94
2022-10-11T17:02:57.954Z,97060.81
2022-10-11T17:05:25.428Z,97058.75
2022-10-11T17:07:52.721Z,97055.19
2022-10-11T17:10:19.860Z,97061.25
2022-10-11T17:12:50.183Z,97054.97
2022-10-11T17:15:17.739Z,97055.63
2022-10-11T17:17:45.017Z,97050.84
2022-10-11T17:20:12.522Z,97050.72
2022-10-11T17:22:42.122Z,97056.03
2022-10-11T17:25:09.743Z,97050.06
2022-10-11T17:27:38.782Z,97053.41
2022-10-11T17:30:11.066Z,97055.25
2022-10-11T17:32:38.311Z,97049.25
2022-10-11T17:35:05.856Z,97052.59
2022-10-11T17:37:34.450Z,97041.66
2022-10-11T17:40:01.653Z,97044.53
2022-10-11T17:42:28.869Z,97052.06
2022-10-11T17:44:56.490Z,97052.72
2022-10-11T17:47:23.762Z,97046.72
2022-10-11T17:49:52.386Z,97043.44
2022-10-11T17:52:20.284Z,97053.69
2022-10-11T17:54:47.538Z,97048.44
2022-10-11T17:57:14.731Z,97042.00
2022-10-11T17:59:42.072Z,97047.28
2022-10-11T18:02:10.464Z,97051.66
2022-10-11T18:04:38.556Z,97054.22
2022-10-11T18:07:06.340Z,97050.50
2022-10-11T18:09:40.532Z,97045.97
2022-10-11T18:12:08.303Z,97056.22
2022-10-11T18:14:35.702Z,97057.63
2022-10-11T18:17:08.902Z,97053.13
2022-10-11T18:19:36.117Z,97061.38
2022-10-11T18:22:06.959Z,97056.91
2022-10-11T18:24:34.985Z,97054.63
2022-10-11T18:27:02.472Z,97054.06
2022-10-11T18:29:30.690Z,97053.00
2022-10-11T18:31:57.949Z,97055.88
2022-10-11T18:34:25.114Z,97049.72
2022-10-11T18:36:52.327Z,97055.28
2022-10-11T18:39:21.545Z,97059.97
2022-10-11T18:41:48.823Z,97053.78
2022-10-11T18:44:16.466Z,97053.50
2022-10-11T18:46:44.990Z,97057.88
2022-10-11T18:49:13.813Z,97057.88
2022-10-11T18:51:42.530Z,97057.56
2022-10-11T18:54:14.060Z,97058.03
2022-10-11T18:56:44.218Z,97054.28
2022-10-11T18:59:14.116Z,97060.59
2022-10-11T19:01:44.872Z,97053.97
2022-10-11T19:04:16.107Z,97060.59
2022-10-11T19:06:47.906Z,97050.22
2022-10-11T19:09:24.526Z,97056.06
2022-10-11T19:11:54.041Z,97055.31
2022-10-11T19:14:25.707Z,97054.56
2022-10-11T19:16:56.298Z,97053.34
2022-10-11T19:19:27.742Z,97050.66
2022-10-11T19:21:55.590Z,97055.78
2022-10-11T19:24:24.646Z,97049.31
2022-10-11T19:26:54.716Z,97045.09
2022-10-11T19:29:26.214Z,97046.16
2022-10-11T19:31:56.001Z,97051.56
2022-10-11T19:34:32.014Z,97044.66
2022-10-11T19:37:01.300Z,97051.25
2022-10-11T19:39:29.827Z,97054.72
2022-10-11T19:41:57.134Z,97052.00
2022-10-11T19:44:24.771Z,97050.97
2022-10-11T19:46:53.032Z,97055.91
2022-10-11T19:49:24.938Z,97049.91
2022-10-11T19:51:53.905Z,97055.50
2022-10-11T19:54:21.299Z,97055.94
2022-10-11T19:56:48.582Z,97059.84
2022-10-11T19:59:16.568Z,97060.31
2022-10-11T20:01:47.921Z,97061.53
2022-10-11T20:04:39.684Z,97057.00
2022-10-11T20:07:05.628Z,97059.44
2022-10-11T20:09:32.843Z,97058.38
2022-10-11T20:12:00.105Z,97062.75
2022-10-11T20:14:27.878Z,97063.94
2022-10-11T20:16:55.083Z,97060.91
2022-10-11T20:19:27.755Z,97063.34
2022-10-11T20:21:57.893Z,97063.78
2022-10-11T20:24:27.677Z,97061.53
2022-10-11T20:26:55.516Z,97062.44
2022-10-11T20:29:25.642Z,97066.34
2022-10-11T20:31:52.830Z,97064.09
2022-10-11T20:34:20.099Z,97070.84
2022-10-11T20:36:49.267Z,97063.19
2022-10-11T20:39:18.360Z,97068.44
2022-10-11T20:41:46.487Z,97057.34
2022-10-11T20:44:16.357Z,97066.66
2022-10-11T20:46:46.043Z,97064.88
2022-10-11T20:49:13.633Z,97071.91
2022-10-11T20:51:42.153Z,97068.16
2022-10-11T20:54:10.537Z,97065.91
2022-10-11T20:56:40.168Z,97057.47
2022-10-11T20:59:08.342Z,97066.50
2022-10-11T21:01:40.507Z,97066.66
2022-10-11T21:04:10.548Z,97066.34
2022-10-11T21:06:37.651Z,97064.56
2022-10-11T21:09:09.331Z,97066.94
2022-10-11T21:11:38.731Z,97069.66
2022-10-11T21:14:07.071Z,97066.34
2022-10-11T21:16:35.010Z,97076.09
2022-10-11T21:19:03.683Z,97065.00
2022-10-11T21:21:31.246Z,97070.84
2022-10-11T21:24:02.598Z,97067.81
2022-10-11T21:26:31.272Z,97066.31
2022-10-11T21:29:04.187Z,97065.28
2022-10-11T21:31:34.698Z,97060.31
2022-10-11T21:34:02.753Z,97058.50
2022-10-11T21:36:29.948Z,97045.75
2022-10-11T21:38:57.238Z,97056.56
2022-10-11T21:41:26.445Z,97042.00
2022-10-11T21:43:54.009Z,97040.03
2022-10-11T21:46:22.677Z,97030.00
2022-10-11T21:48:50.370Z,97041.56
2022-10-11T21:51:23.244Z,97038.84
2022-10-11T21:53:51.220Z,97040.78
2022-10-11T21:56:18.681Z,97030.75
2022-10-11T21:58:49.938Z,97037.66
2022-10-11T22:01:18.910Z,97037.66
2022-10-11T22:03:46.784Z,97044.53
2022-10-11T22:06:14.834Z,97036.44
2022-10-11T22:08:41.873Z,97031.78
2022-10-11T22:11:10.112Z,97036.75
2022-10-11T22:13:38.592Z,97035.13
2022-10-11T22:16:07.820Z,97028.94
2022-10-11T22:18:35.470Z,97036.16
2022-10-11T22:21:13.613Z,97023.38
2022-10-11T22:23:43.231Z,97030.31
2022-10-11T22:26:16.145Z,97031.06
2022-10-11T22:28:43.553Z,97021.44
2022-10-11T22:31:11.182Z,97020.25
2022-10-11T22:33:40.273Z,97014.38
2022-10-11T22:36:09.178Z,97016.03
2022-10-11T22:38:37.718Z,97014.53
2022-10-11T22:41:05.000Z,97016.94
2022-10-11T22:43:32.464Z,97017.84
2022-10-11T22:45:59.563Z,97020.69
2022-10-11T22:48:26.975Z,97020.81
2022-10-11T22:50:54.356Z,97005.84
2022-10-11T22:53:22.763Z,97007.47
2022-10-11T22:55:49.806Z,97008.38
2022-10-11T22:58:18.053Z,97007.63
2022-10-11T23:00:45.021Z,97005.34
2022-10-11T23:03:16.879Z,97003.41
2022-10-11T23:05:44.022Z,97009.56
2022-10-11T23:08:11.869Z,97000.41
2022-10-11T23:10:40.008Z,96998.16
2022-10-11T23:13:07.271Z,96997.84
2022-10-11T23:15:34.393Z,97001.47
2022-10-11T23:18:01.371Z,97003.84
2022-10-11T23:20:28.480Z,96999.94
2022-10-11T23:22:55.406Z,96998.44
2022-10-11T23:25:22.622Z,97003.09
2022-10-11T23:27:49.721Z,97002.81
2022-10-11T23:30:17.063Z,97003.69
2022-10-11T23:32:44.021Z,97005.34
2022-10-11T23:35:11.173Z,97002.31
2022-10-11T23:37:38.457Z,97003.97
2022-10-11T23:40:06.582Z,97002.16
2022-10-11T23:42:33.624Z,97005.78
2022-10-11T23:45:01.762Z,97002.00
2022-10-11T23:47:28.860Z,97008.31
2022-10-11T23:49:56.012Z,97014.56
2022-10-11T23:52:22.965Z,97010.38
2022-10-11T23:54:50.093Z,97012.03
2022-10-11T23:57:17.223Z,97010.84
2022-10-11T23:59:45.310Z,97015.59
